createdAt,value
2018-06-17T00:01:33.109Z,49.60
2018-06-17T00:04:01.202Z,50.00
2018-06-17T00:06:29.303Z,49.90
2018-06-17T00:08:57.411Z,50.00
2018-06-17T00:11:25.515Z,49.80
2018-06-17T00:13:53.637Z,49.60
2018-06-17T00:16:21.768Z,49.70
2018-06-17T00:18:49.873Z,49.60
2018-06-17T00:21:17.979Z,49.70
2018-06-17T00:23:46.087Z,49.80
2018-06-17T00:26:14.198Z,50.00
2018-06-17T00:28:42.295Z,49.70
2018-06-17T00:31:10.449Z,49.80
2018-06-17T00:33:38.703Z,50.00
2018-06-17T00:36:06.821Z,50.10
2018-06-17T00:38:34.911Z,50.10
2018-06-17T00:41:03.038Z,50.00
2018-06-17T00:43:31.160Z,50.10
2018-06-17T00:45:59.376Z,50.40
2018-06-17T00:48:27.473Z,50.70
2018-06-17T00:50:55.551Z,50.60
2018-06-17T00:53:23.617Z,51.00
2018-06-17T00:55:51.720Z,51.40
2018-06-17T00:58:19.787Z,51.60
2018-06-17T01:00:47.899Z,51.40
2018-06-17T01:03:16.023Z,51.60
2018-06-17T01:05:44.116Z,51.90
2018-06-17T01:08:12.211Z,52.20
2018-06-17T01:10:40.289Z,52.20
2018-06-17T01:13:08.382Z,52.50
2018-06-17T01:15:36.491Z,52.50
2018-06-17T01:18:04.605Z,52.70
2018-06-17T01:20:32.718Z,52.90
2018-06-17T01:23:00.829Z,53.20
2018-06-17T01:25:28.919Z,54.10
2018-06-17T01:30:24.957Z,54.00
2018-06-17T01:32:53.107Z,53.80
2018-06-17T01:35:21.285Z,53.70
2018-06-17T01:37:49.381Z,53.70
2018-06-17T01:40:17.476Z,53.50
2018-06-17T01:42:45.550Z,53.70
2018-06-17T01:45:13.647Z,53.80
2018-06-17T01:47:41.752Z,53.80
2018-06-17T01:50:09.898Z,53.90
2018-06-17T01:52:37.979Z,54.10
2018-06-17T01:55:06.105Z,54.60
2018-06-17T01:57:34.239Z,54.90
2018-06-17T02:00:02.352Z,54.50
2018-06-17T02:02:30.478Z,54.70
2018-06-17T02:05:03.983Z,54.60
2018-06-17T02:07:37.711Z,54.60
2018-06-17T02:10:11.298Z,54.60
2018-06-17T02:12:39.382Z,55.00
2018-06-17T02:15:07.464Z,54.90
2018-06-17T02:17:35.538Z,55.10
2018-06-17T02:20:03.658Z,55.30
2018-06-17T02:22:31.764Z,55.60
2018-06-17T02:24:59.853Z,55.40
2018-06-17T02:27:27.920Z,55.30
2018-06-17T02:29:55.992Z,55.50
2018-06-17T02:32:24.085Z,55.60
2018-06-17T02:34:52.235Z,55.90
2018-06-17T02:37:20.347Z,55.80
2018-06-17T02:42:16.434Z,56.10
2018-06-17T02:44:44.517Z,56.20
2018-06-17T02:47:18.259Z,56.30
2018-06-17T02:49:48.052Z,56.50
2018-06-17T02:52:21.614Z,56.70
2018-06-17T02:54:49.723Z,56.70
2018-06-17T02:57:19.094Z,56.50
2018-06-17T02:59:47.435Z,56.60
2018-06-17T03:02:15.750Z,56.60
2018-06-17T03:04:43.868Z,57.00
2018-06-17T03:07:11.992Z,56.60
2018-06-17T03:09:40.088Z,56.80
2018-06-17T03:12:08.171Z,57.00
2018-06-17T03:14:36.286Z,56.70
2018-06-17T03:19:32.416Z,57.00
2018-06-17T03:22:00.544Z,57.10
2018-06-17T03:24:34.136Z,57.00
2018-06-17T03:27:07.641Z,57.20
2018-06-17T03:29:41.174Z,57.20
2018-06-17T03:32:14.705Z,57.10
2018-06-17T03:34:42.778Z,57.20
2018-06-17T03:37:10.879Z,57.60
2018-06-17T03:39:38.976Z,58.00
2018-06-17T03:42:07.068Z,57.10
2018-06-17T03:44:35.169Z,57.10
2018-06-17T03:47:03.521Z,57.30
2018-06-17T03:49:31.686Z,57.40
2018-06-17T03:51:59.798Z,57.50
2018-06-17T03:54:27.916Z,57.60
2018-06-17T03:56:56.079Z,57.60
2018-06-17T03:59:24.183Z,57.60
2018-06-17T04:01:52.364Z,57.60
2018-06-17T04:04:22.052Z,57.60
2018-06-17T04:06:50.166Z,57.70
2018-06-17T04:09:18.310Z,57.80
2018-06-17T04:11:46.407Z,58.50
2018-06-17T04:14:14.519Z,57.80
2018-06-17T04:16:42.625Z,57.90
2018-06-17T04:19:10.697Z,57.70
2018-06-17T04:21:38.802Z,57.60
2018-06-17T04:24:06.915Z,57.40
2018-06-17T04:26:35.185Z,57.30
2018-06-17T04:29:03.335Z,57.00
2018-06-17T04:31:31.415Z,57.00
2018-06-17T04:33:59.510Z,56.90
2018-06-17T04:38:55.542Z,56.60
2018-06-17T04:46:19.622Z,56.30
2018-06-17T04:48:47.722Z,56.00
2018-06-17T04:51:16.062Z,55.90
2018-06-17T04:53:44.174Z,55.80
2018-06-17T04:56:12.285Z,55.70
2018-06-17T04:58:40.352Z,55.30
2018-06-17T05:01:08.486Z,54.80
2018-06-17T05:03:36.590Z,54.80
2018-06-17T05:06:04.878Z,54.60
2018-06-17T05:08:33.020Z,54.20
2018-06-17T05:11:08.111Z,53.50
2018-06-17T05:13:36.227Z,53.10
2018-06-17T05:16:04.400Z,52.50
2018-06-17T05:18:32.571Z,51.90
2018-06-17T05:21:00.685Z,51.40
2018-06-17T05:23:28.791Z,50.80
2018-06-17T05:25:56.931Z,50.70
2018-06-17T05:28:25.054Z,50.80
2018-06-17T05:30:53.175Z,50.10
2018-06-17T05:33:21.286Z,50.30
2018-06-17T05:35:49.377Z,50.50
2018-06-17T05:38:17.522Z,50.50
2018-06-17T05:40:45.809Z,50.70
2018-06-17T05:43:14.147Z,50.50
2018-06-17T05:45:42.289Z,50.70
2018-06-17T05:48:10.408Z,50.10
2018-06-17T05:50:38.626Z,49.50
2018-06-17T05:53:06.721Z,49.10
2018-06-17T05:55:35.086Z,48.80
2018-06-17T05:58:03.216Z,48.30
2018-06-17T06:00:31.370Z,47.40
2018-06-17T06:02:59.516Z,47.40
2018-06-17T06:05:27.677Z,47.50
2018-06-17T06:07:56.031Z,48.20
2018-06-17T06:10:24.382Z,48.70
2018-06-17T06:12:52.433Z,48.90
2018-06-17T06:15:20.569Z,48.50
2018-06-17T06:17:48.711Z,49.00
2018-06-17T06:20:16.792Z,48.80
2018-06-17T06:22:44.905Z,49.00
2018-06-17T06:25:13.055Z,48.80
2018-06-17T06:27:41.463Z,48.70
2018-06-17T06:30:09.596Z,48.60
2018-06-17T06:32:37.738Z,48.70
2018-06-17T06:35:05.956Z,48.70
2018-06-17T06:40:02.117Z,48.80
2018-06-17T06:42:30.290Z,49.20
2018-06-17T06:44:58.403Z,48.60
2018-06-17T06:47:26.574Z,47.90
2018-06-17T06:49:54.709Z,47.70
2018-06-17T06:52:22.848Z,46.80
2018-06-17T06:54:50.979Z,46.90
2018-06-17T06:57:19.062Z,46.70
2018-06-17T06:59:47.177Z,46.70
2018-06-17T07:02:26.641Z,46.90
2018-06-17T07:05:06.159Z,46.90
2018-06-17T07:07:45.737Z,46.70
2018-06-17T07:10:24.639Z,45.90
2018-06-17T07:12:52.831Z,45.20
2018-06-17T07:15:32.680Z,45.40
2018-06-17T07:18:12.310Z,45.40
2018-06-17T07:20:40.394Z,45.10
2018-06-17T07:26:47.924Z,44.70
2018-06-17T07:29:29.442Z,44.50
2018-06-17T07:31:57.506Z,44.20
2018-06-17T07:34:25.689Z,44.20
2018-06-17T07:36:53.804Z,44.30
2018-06-17T07:40:13.484Z,44.80
2018-06-17T07:42:41.609Z,45.60
2018-06-17T07:45:09.727Z,44.80
2018-06-17T07:47:37.839Z,42.80
2018-06-17T07:50:17.589Z,41.10
2018-06-17T07:52:57.201Z,40.40
2018-06-17T07:55:25.374Z,39.60
2018-06-17T07:57:53.494Z,38.90
2018-06-17T08:00:21.598Z,38.10
2018-06-17T08:02:49.820Z,37.50
2018-06-17T08:05:17.923Z,37.30
2018-06-17T08:07:46.062Z,37.20
2018-06-17T08:10:14.195Z,37.40
2018-06-17T08:12:42.324Z,37.40
2018-06-17T08:15:10.452Z,37.30
2018-06-17T08:17:38.551Z,38.20
2018-06-17T08:20:06.656Z,39.20
2018-06-17T08:22:34.879Z,40.10
2018-06-17T08:25:03.005Z,41.30
2018-06-17T08:27:31.203Z,42.80
2018-06-17T08:29:59.460Z,43.60
2018-06-17T08:32:27.556Z,44.00
2018-06-17T08:34:55.666Z,44.00
2018-06-17T08:37:23.848Z,44.30
2018-06-17T08:42:19.910Z,45.00
2018-06-17T08:47:15.882Z,44.60
2018-06-17T08:49:43.977Z,44.30
2018-06-17T08:52:12.082Z,44.30
2018-06-17T08:54:40.215Z,44.30
2018-06-17T08:57:08.326Z,43.30
2018-06-17T09:02:04.423Z,43.80
2018-06-17T09:04:32.491Z,43.70
2018-06-17T09:07:00.556Z,44.10
2018-06-17T09:09:28.661Z,44.50
2018-06-17T09:11:56.738Z,44.30
2018-06-17T09:14:24.795Z,43.30
2018-06-17T09:16:52.879Z,43.30
2018-06-17T09:19:21.018Z,43.50
2018-06-17T09:21:49.096Z,43.70
2018-06-17T09:24:17.181Z,44.20
2018-06-17T09:26:45.274Z,43.30
2018-06-17T09:29:13.380Z,43.80
2018-06-17T09:31:41.511Z,44.00
2018-06-17T09:34:09.559Z,44.20
2018-06-17T09:36:37.685Z,44.40
2018-06-17T09:39:07.472Z,44.40
2018-06-17T09:41:35.741Z,45.10
2018-06-17T09:44:03.824Z,45.40
2018-06-17T09:46:31.891Z,45.20
2018-06-17T09:48:59.969Z,45.00
2018-06-17T09:51:28.068Z,44.90
2018-06-17T09:53:56.159Z,44.30
2018-06-17T09:56:24.231Z,44.40
2018-06-17T09:58:52.379Z,43.90
2018-06-17T10:01:20.508Z,43.40
2018-06-17T10:03:48.634Z,44.20
2018-06-17T10:06:16.724Z,44.40
2018-06-17T10:08:44.818Z,44.20
2018-06-17T10:11:12.880Z,43.90
2018-06-17T10:13:42.924Z,44.20
2018-06-17T10:16:11.492Z,43.90
2018-06-17T10:18:39.593Z,43.60
2018-06-17T10:21:07.685Z,43.80
2018-06-17T10:23:35.750Z,43.10
2018-06-17T10:26:03.896Z,43.10
2018-06-17T10:28:32.910Z,42.10
2018-06-17T10:31:03.730Z,41.00
2018-06-17T10:33:31.813Z,41.10
2018-06-17T10:36:00.279Z,41.10
2018-06-17T10:38:28.689Z,41.30
2018-06-17T10:40:56.835Z,41.90
2018-06-17T10:43:26.383Z,41.70
2018-06-17T10:45:54.749Z,41.30
2018-06-17T10:48:22.851Z,41.80
2018-06-17T10:50:50.968Z,42.50
2018-06-17T10:53:19.044Z,43.20
2018-06-17T10:55:47.253Z,43.80
2018-06-17T10:58:15.240Z,44.10
2018-06-17T11:00:43.489Z,44.10
2018-06-17T11:03:11.538Z,43.80
2018-06-17T11:05:39.675Z,42.90
2018-06-17T11:08:07.774Z,42.80
2018-06-17T11:10:35.892Z,42.40
2018-06-17T11:13:04.011Z,41.30
2018-06-17T11:15:32.122Z,41.10
2018-06-17T11:18:00.246Z,41.20
2018-06-17T11:20:28.349Z,40.90
2018-06-17T11:22:56.430Z,41.10
2018-06-17T11:25:24.514Z,41.80
2018-06-17T11:27:52.587Z,41.90
2018-06-17T11:30:20.700Z,42.50
2018-06-17T11:32:48.775Z,43.30
2018-06-17T11:35:16.916Z,43.00
2018-06-17T11:37:45.004Z,42.80
2018-06-17T11:40:13.152Z,43.20
2018-06-17T11:42:41.288Z,42.40
2018-06-17T11:45:09.431Z,42.20
2018-06-17T11:47:37.778Z,41.70
2018-06-17T11:50:06.055Z,40.50
2018-06-17T11:52:34.190Z,39.60
2018-06-17T11:55:02.284Z,39.80
2018-06-17T11:57:30.438Z,39.70
2018-06-17T11:59:58.567Z,40.20
2018-06-17T12:02:26.655Z,40.30
2018-06-17T12:04:54.788Z,40.40
2018-06-17T12:07:22.992Z,41.50
2018-06-17T12:09:51.164Z,41.70
2018-06-17T12:12:19.289Z,40.70
2018-06-17T12:14:47.444Z,40.20
2018-06-17T12:17:15.479Z,40.40
2018-06-17T12:19:43.600Z,40.60
2018-06-17T12:22:11.705Z,39.70
2018-06-17T12:24:39.888Z,39.50
2018-06-17T12:27:08.077Z,39.30
2018-06-17T12:29:36.180Z,39.10
2018-06-17T12:32:04.719Z,39.10
2018-06-17T12:34:32.896Z,38.80
2018-06-17T12:39:29.242Z,39.70
2018-06-17T12:41:57.426Z,39.70
2018-06-17T12:44:25.605Z,40.70
2018-06-17T12:46:53.701Z,41.20
2018-06-17T12:49:21.840Z,41.40
2018-06-17T12:51:49.917Z,41.60
2018-06-17T12:56:45.951Z,41.80
2018-06-17T12:59:14.039Z,41.50
2018-06-17T13:01:42.107Z,40.80
2018-06-17T13:04:10.207Z,40.40
2018-06-17T13:06:38.351Z,40.60
2018-06-17T13:09:08.843Z,40.40
2018-06-17T13:11:36.918Z,39.90
2018-06-17T13:14:05.007Z,39.80
2018-06-17T13:16:33.090Z,38.70
2018-06-17T13:19:01.668Z,38.50
2018-06-17T13:21:29.754Z,38.00
2018-06-17T13:23:58.059Z,37.80
2018-06-17T13:26:26.967Z,38.50
2018-06-17T13:28:55.076Z,38.60
2018-06-17T13:31:23.716Z,38.80
2018-06-17T13:33:52.288Z,39.10
2018-06-17T13:36:20.391Z,39.30
2018-06-17T13:38:48.496Z,39.70
2018-06-17T13:41:16.595Z,39.30
2018-06-17T13:43:44.763Z,39.20
2018-06-17T13:46:12.952Z,38.50
2018-06-17T13:48:41.192Z,37.80
2018-06-17T13:51:09.271Z,37.90
2018-06-17T13:53:37.392Z,37.50
2018-06-17T13:56:05.674Z,37.30
2018-06-17T13:58:33.925Z,37.30
2018-06-17T14:01:02.109Z,37.20
2018-06-17T14:03:30.276Z,37.10
2018-06-17T14:05:58.373Z,37.20
2018-06-17T14:08:26.497Z,36.80
2018-06-17T14:10:55.071Z,35.20
2018-06-17T14:13:23.158Z,35.10
2018-06-17T14:15:51.360Z,34.60
2018-06-17T14:18:19.460Z,33.90
2018-06-17T14:20:47.667Z,33.60
2018-06-17T14:23:15.855Z,32.90
2018-06-17T14:25:44.005Z,33.40
2018-06-17T14:28:12.072Z,32.80
2018-06-17T14:30:40.291Z,34.10
2018-06-17T14:33:08.538Z,32.60
2018-06-17T14:35:36.624Z,32.30
2018-06-17T14:38:04.849Z,32.00
2018-06-17T14:43:12.016Z,32.80
2018-06-17T14:45:45.616Z,33.20
2018-06-17T14:48:19.288Z,32.60
2018-06-17T14:50:52.798Z,31.00
2018-06-17T14:53:20.869Z,31.40
2018-06-17T14:55:48.959Z,31.70
2018-06-17T14:58:17.034Z,31.60
2018-06-17T15:00:45.145Z,31.90
2018-06-17T15:03:13.283Z,31.50
2018-06-17T15:05:41.379Z,31.60
2018-06-17T15:08:09.437Z,31.50
2018-06-17T15:10:37.503Z,32.00
2018-06-17T15:13:05.545Z,31.90
2018-06-17T15:15:33.683Z,32.40
2018-06-17T15:18:02.333Z,32.90
2018-06-17T15:20:30.448Z,33.00
2018-06-17T15:22:58.490Z,33.20
2018-06-17T15:25:26.596Z,33.10
2018-06-17T15:27:54.690Z,32.90
2018-06-17T15:30:22.780Z,33.30
2018-06-17T15:32:56.275Z,32.60
2018-06-17T15:35:29.874Z,32.30
2018-06-17T15:38:03.392Z,31.90
2018-06-17T15:40:36.915Z,31.90
2018-06-17T15:43:05.022Z,31.50
2018-06-17T15:45:33.312Z,31.40
2018-06-17T15:48:01.460Z,31.40
2018-06-17T15:50:29.520Z,31.60
2018-06-17T15:52:57.609Z,31.10
2018-06-17T15:55:26.470Z,31.30
2018-06-17T15:57:54.551Z,30.90
2018-06-17T16:00:22.647Z,31.00
2018-06-17T16:02:50.739Z,31.20
2018-06-17T16:05:18.924Z,31.20
2018-06-17T16:07:47.099Z,30.70
2018-06-17T16:10:15.219Z,31.30
2018-06-17T16:12:48.701Z,31.70
2018-06-17T16:15:22.163Z,31.30
2018-06-17T16:17:55.812Z,31.50
2018-06-17T16:20:29.483Z,31.60
2018-06-17T16:22:57.823Z,31.40
2018-06-17T16:25:25.867Z,31.70
2018-06-17T16:27:53.954Z,31.80
2018-06-17T16:30:22.012Z,32.00
2018-06-17T16:32:50.108Z,31.30
2018-06-17T16:35:18.253Z,31.90
2018-06-17T16:37:46.427Z,31.40
2018-06-17T16:40:14.511Z,31.80
2018-06-17T16:42:42.654Z,31.60
2018-06-17T16:45:10.924Z,31.70
2018-06-17T16:47:39.001Z,31.60
2018-06-17T16:50:07.109Z,31.70
2018-06-17T16:52:40.683Z,31.70
2018-06-17T16:55:14.380Z,31.20
2018-06-17T16:57:48.078Z,32.30
2018-06-17T17:02:47.296Z,31.10
2018-06-17T17:05:15.528Z,31.50
2018-06-17T17:07:43.965Z,31.00
2018-06-17T17:10:12.094Z,31.50
2018-06-17T17:12:40.192Z,31.40
2018-06-17T17:15:08.374Z,32.20
2018-06-17T17:17:36.493Z,31.90
2018-06-17T17:20:04.869Z,31.80
2018-06-17T17:22:33.016Z,31.70
2018-06-17T17:25:01.110Z,31.30
2018-06-17T17:27:29.266Z,31.20
2018-06-17T17:32:30.841Z,31.40
2018-06-17T17:36:07.459Z,31.60
2018-06-17T17:38:41.150Z,31.90
2018-06-17T17:41:09.261Z,32.20
2018-06-17T17:43:37.363Z,32.30
2018-06-17T17:46:10.932Z,32.90
2018-06-17T17:48:39.035Z,32.40
2018-06-17T17:51:07.180Z,32.70
2018-06-17T17:53:35.259Z,32.40
2018-06-17T17:56:03.354Z,32.40
2018-06-17T18:00:59.494Z,32.90
2018-06-17T18:03:27.650Z,33.10
2018-06-17T18:05:55.788Z,33.00
2018-06-17T18:08:24.018Z,33.30
2018-06-17T18:10:52.366Z,34.40
2018-06-17T18:13:20.665Z,33.60
2018-06-17T18:15:48.770Z,33.40
2018-06-17T18:18:17.189Z,33.30
2018-06-17T18:20:45.405Z,33.10
2018-06-17T18:23:13.580Z,33.40
2018-06-17T18:25:47.111Z,32.90
2018-06-17T18:30:55.574Z,32.50
2018-06-17T18:33:29.208Z,32.50
2018-06-17T18:36:02.677Z,32.40
2018-06-17T18:38:30.906Z,32.40
2018-06-17T18:43:27.150Z,32.90
2018-06-17T18:45:55.290Z,33.90
2018-06-17T18:48:23.395Z,33.50
2018-06-17T18:50:51.812Z,33.30
2018-06-17T18:53:22.339Z,33.30
2018-06-17T18:55:52.541Z,33.60
2018-06-17T18:58:21.679Z,33.80
2018-06-17T19:00:50.672Z,34.10
2018-06-17T19:03:19.241Z,35.00
2018-06-17T19:05:47.364Z,35.10
2018-06-17T19:08:21.158Z,34.90
2018-06-17T19:10:54.512Z,35.10
2018-06-17T19:13:28.188Z,35.20
2018-06-17T19:16:02.299Z,35.50
2018-06-17T19:18:30.666Z,35.40
2018-06-17T19:20:59.124Z,35.60
2018-06-17T19:23:27.222Z,35.80
2018-06-17T19:25:55.761Z,36.10
2018-06-17T19:28:23.975Z,36.50
2018-06-17T19:30:52.106Z,36.90
2018-06-17T19:33:20.350Z,37.30
2018-06-17T19:35:48.416Z,37.40
2018-06-17T19:38:16.574Z,37.70
2018-06-17T19:40:44.975Z,37.90
2018-06-17T19:43:13.136Z,38.10
2018-06-17T19:45:41.323Z,38.60
2018-06-17T19:48:09.465Z,39.40
2018-06-17T19:50:42.966Z,39.20
2018-06-17T19:53:16.708Z,39.40
2018-06-17T19:55:50.410Z,39.50
2018-06-17T19:58:23.841Z,39.80
2018-06-17T20:03:23.401Z,39.40
2018-06-17T20:05:51.663Z,39.00
2018-06-17T20:10:47.719Z,39.30
2018-06-17T20:13:15.827Z,38.70
2018-06-17T20:15:43.978Z,38.60
2018-06-17T20:18:12.138Z,38.60
2018-06-17T20:20:40.239Z,38.70
2018-06-17T20:23:08.393Z,38.70
2018-06-17T20:25:36.528Z,38.80
2018-06-17T20:28:04.616Z,39.30
2018-06-17T20:30:32.717Z,39.90
2018-06-17T20:33:06.211Z,39.90
2018-06-17T20:35:39.893Z,39.80
2018-06-17T20:38:13.444Z,39.80
2018-06-17T20:40:47.011Z,40.10
2018-06-17T20:43:22.386Z,40.10
2018-06-17T20:45:50.541Z,40.20
2018-06-17T20:48:18.700Z,40.20
2018-06-17T20:50:47.132Z,40.60
2018-06-17T20:53:15.286Z,41.20
2018-06-17T20:55:43.412Z,41.30
2018-06-17T20:58:11.556Z,41.50
2018-06-17T21:00:39.713Z,41.50
2018-06-17T21:03:07.834Z,41.70
2018-06-17T21:05:35.907Z,42.00
2018-06-17T21:08:04.128Z,42.10
2018-06-17T21:10:32.372Z,42.30
2018-06-17T21:15:28.339Z,43.30
2018-06-17T21:17:56.462Z,42.70
2018-06-17T21:20:29.948Z,42.60
2018-06-17T21:23:03.523Z,43.30
2018-06-17T21:25:37.135Z,43.10
2018-06-17T21:28:05.245Z,43.00
2018-06-17T21:33:01.276Z,42.40
2018-06-17T21:35:29.390Z,43.10
2018-06-17T21:37:57.513Z,42.80
2018-06-17T21:40:25.610Z,42.90
2018-06-17T21:42:53.734Z,43.30
2018-06-17T21:45:21.885Z,43.30
2018-06-17T21:47:49.978Z,43.50
2018-06-17T21:50:18.134Z,43.70
2018-06-17T21:52:46.200Z,44.00
2018-06-17T21:55:14.300Z,44.00
2018-06-17T21:57:42.381Z,44.20
2018-06-17T22:00:10.629Z,44.30
2018-06-17T22:02:44.736Z,44.30
2018-06-17T22:07:46.427Z,44.20
2018-06-17T22:10:20.090Z,44.30
2018-06-17T22:12:53.544Z,44.60
2018-06-17T22:15:27.272Z,44.80
2018-06-17T22:17:55.692Z,45.10
2018-06-17T22:20:23.791Z,45.30
2018-06-17T22:22:52.622Z,45.50
2018-06-17T22:25:20.728Z,45.50
2018-06-17T22:27:48.827Z,45.50
2018-06-17T22:30:16.922Z,45.60
2018-06-17T22:32:45.158Z,45.90
2018-06-17T22:35:13.243Z,45.30
2018-06-17T22:37:41.423Z,45.10
2018-06-17T22:40:09.530Z,45.00
2018-06-17T22:42:38.279Z,45.10
2018-06-17T22:45:06.684Z,44.90
2018-06-17T22:47:40.435Z,44.80
2018-06-17T22:50:08.844Z,44.60
2018-06-17T22:53:47.154Z,44.90
2018-06-17T22:56:20.810Z,44.50
2018-06-17T22:58:54.532Z,44.90
2018-06-17T23:01:28.112Z,45.00
2018-06-17T23:04:01.744Z,45.40
2018-06-17T23:06:35.427Z,45.30
2018-06-17T23:09:08.898Z,45.70
2018-06-17T23:11:37.017Z,45.60
2018-06-17T23:14:05.113Z,45.40
2018-06-17T23:16:33.184Z,45.50
2018-06-17T23:19:01.296Z,45.90
2018-06-17T23:21:29.403Z,45.60
2018-06-17T23:23:57.482Z,45.90
2018-06-17T23:26:25.587Z,46.10
2018-06-17T23:28:53.701Z,46.40
2018-06-17T23:31:21.807Z,46.30
2018-06-17T23:33:49.866Z,46.30
2018-06-17T23:36:17.939Z,46.40
2018-06-17T23:38:46.015Z,47.10
2018-06-17T23:41:16.055Z,47.30
2018-06-17T23:43:45.480Z,47.70
2018-06-17T23:46:18.978Z,48.30
2018-06-17T23:48:52.491Z,48.70
2018-06-17T23:51:25.979Z,49.00
2018-06-17T23:53:59.503Z,49.30
2018-06-17T23:56:27.599Z,49.60
2018-06-17T23:58:55.705Z,49.80
